KEHC

East Cameron 278

East Cameron 278, Louisiana, USA
METAR KEHC 170735Z AUTO 17030G36KT 7SM FEW021 SCT028 SCT070 25/21 A2997 RMK A01
Observed Flight Rules
Dec-17 @ 07:35 UTC (29 minutes ago) Visual Flight Rules
Wind Visibility Clouds
170° at 30 knots
 Gusting to 36 knots
7 miles
  • Few at 2,100' AGL
  • Scattered at 2,800' AGL
  • Scattered at 7,000' AGL
Temperatures Readings
Current 25°C / 77°F
Dewpoint 21°C / 70°F
Humidity 79%
Altimeter 29.97" Hg
Pressure 1015 hPa
Elevation 31
METAR KEHC 170735Z AUTO 17030G36KT 7SM FEW021 SCT028 SCT070 25/21 A2997 RMK A01
Observed Flight Rules
Dec-17 @ 07:35 UTC
(29 minutes ago)
VFR
Wind Visibility
170° at 30 knots
 Gusting to 36 knots
7 miles
Clouds
  • Few at 2,100' AGL
  • Scattered at 2,800' AGL
  • Scattered at 7,000' AGL
Temperature Dewpoint
25°C / 77°F 21°C / 70°F
Humidity Altimeter Pressure
79% 29.97" Hg 1015 hPa